createdAt,value
2022-12-19T00:00:49.099Z,97313.52
2022-12-19T00:03:26.599Z,97313.17
2022-12-19T00:05:54.937Z,97318.21
2022-12-19T00:08:23.081Z,97316.31
2022-12-19T00:10:59.830Z,97324.13
2022-12-19T00:13:30.138Z,97329.65
2022-12-19T00:16:04.901Z,97325.91
2022-12-19T00:18:33.056Z,97323.80
2022-12-19T00:21:04.585Z,97324.75
2022-12-19T00:23:34.684Z,97326.06
2022-12-19T00:26:14.207Z,97325.17
2022-12-19T00:28:44.121Z,97327.28
2022-12-19T00:31:12.652Z,97331.54
2022-12-19T00:33:43.342Z,97329.66
2022-12-19T00:36:22.857Z,97318.80
2022-12-19T00:38:52.775Z,97321.95
2022-12-19T00:41:26.131Z,97316.89
2022-12-19T00:44:00.201Z,97315.95
2022-12-19T00:46:31.000Z,97315.14
2022-12-19T00:48:59.392Z,97322.56
2022-12-19T00:51:30.337Z,97330.77
2022-12-19T00:53:59.334Z,97331.83
2022-12-19T00:56:30.899Z,97338.72
2022-12-19T00:59:01.491Z,97341.28
2022-12-19T01:01:33.481Z,97341.37
2022-12-19T01:06:52.808Z,97340.34
2022-12-19T01:09:22.761Z,97332.75
2022-12-19T01:12:09.673Z,97331.75
2022-12-19T01:14:37.648Z,97328.27
2022-12-19T01:17:06.030Z,97327.45
2022-12-19T01:19:36.720Z,97322.65
2022-12-19T01:22:07.111Z,97323.91
2022-12-19T01:24:35.597Z,97313.91
2022-12-19T01:27:03.689Z,97309.27
2022-12-19T01:29:33.728Z,97314.33
2022-12-19T01:32:05.034Z,97317.99
2022-12-19T01:34:33.460Z,97312.34
2022-12-19T01:37:01.527Z,97310.83
2022-12-19T01:39:30.700Z,97313.31
2022-12-19T01:42:00.619Z,97302.65
2022-12-19T01:44:31.828Z,97304.38
2022-12-19T01:47:00.991Z,97306.95
2022-12-19T01:49:35.623Z,97305.77
2022-12-19T01:52:07.891Z,97305.01
2022-12-19T01:54:41.192Z,97303.49
2022-12-19T01:57:14.171Z,97304.33
2022-12-19T01:59:51.579Z,97300.33
2022-12-19T02:02:31.444Z,97302.00
2022-12-19T02:05:03.540Z,97295.73
2022-12-19T02:07:32.584Z,97298.60
2022-12-19T02:10:00.828Z,97305.00
2022-12-19T02:12:37.900Z,97300.11
2022-12-19T02:15:08.282Z,97299.55
2022-12-19T02:18:10.850Z,97299.31
2022-12-19T02:21:18.074Z,97296.96
2022-12-19T02:24:04.872Z,97295.17
2022-12-19T02:26:51.183Z,97295.61
2022-12-19T02:29:25.797Z,97293.39
2022-12-19T02:32:19.632Z,97294.80
2022-12-19T02:35:02.561Z,97293.52
2022-12-19T02:37:35.871Z,97298.52
2022-12-19T02:40:33.124Z,97295.19
2022-12-19T02:43:04.089Z,97294.58
2022-12-19T02:45:37.076Z,97291.83
2022-12-19T02:48:09.035Z,97296.58
2022-12-19T02:50:43.787Z,97300.02
2022-12-19T02:53:15.360Z,97304.38
2022-12-19T02:56:21.820Z,97306.83
2022-12-19T02:59:14.583Z,97307.57
2022-12-19T03:01:45.971Z,97310.00
2022-12-19T03:04:29.723Z,97308.83
2022-12-19T03:07:29.780Z,97307.38
2022-12-19T03:10:18.611Z,97303.73
2022-12-19T03:13:05.896Z,97301.53
2022-12-19T03:15:35.144Z,97301.93
2022-12-19T03:18:04.248Z,97300.23
2022-12-19T03:20:41.577Z,97300.58
2022-12-19T03:23:10.338Z,97310.45
2022-12-19T03:25:39.057Z,97312.63
2022-12-19T03:28:16.582Z,97311.34
2022-12-19T03:30:46.819Z,97315.09
2022-12-19T03:33:19.075Z,97317.93
2022-12-19T03:35:49.946Z,97319.82
2022-12-19T03:38:20.551Z,97327.30
2022-12-19T03:40:50.098Z,97327.69
2022-12-19T03:43:21.250Z,97325.61
2022-12-19T03:45:58.717Z,97324.11
2022-12-19T03:48:33.352Z,97326.14
2022-12-19T03:51:11.587Z,97327.86
2022-12-19T03:54:04.372Z,97325.95
2022-12-19T03:56:37.247Z,97329.53
2022-12-19T03:59:11.444Z,97335.33
2022-12-19T04:01:41.355Z,97332.21
2022-12-19T04:04:10.897Z,97335.79
2022-12-19T04:06:42.335Z,97333.30
2022-12-19T04:09:11.150Z,97339.73
2022-12-19T04:11:47.035Z,97346.14
2022-12-19T04:14:20.229Z,97347.39
2022-12-19T04:16:59.603Z,97352.30
2022-12-19T04:19:46.154Z,97356.39
2022-12-19T04:22:22.768Z,97351.39
2022-12-19T04:24:53.010Z,97355.45
2022-12-19T04:27:22.282Z,97352.52
2022-12-19T04:29:54.860Z,97350.64
2022-12-19T04:32:25.630Z,97344.78
2022-12-19T04:34:53.701Z,97343.60
2022-12-19T04:37:21.753Z,97346.66
2022-12-19T04:39:49.870Z,97347.67
2022-12-19T04:42:18.008Z,97351.64
2022-12-19T04:44:46.195Z,97354.32
2022-12-19T04:47:14.362Z,97353.89
2022-12-19T04:49:42.551Z,97355.23
2022-12-19T04:52:10.742Z,97357.58
2022-12-19T04:54:39.586Z,97357.67
2022-12-19T04:57:08.326Z,97352.64
2022-12-19T04:59:36.446Z,97351.67
2022-12-19T05:02:04.693Z,97350.68
2022-12-19T05:04:32.906Z,97353.29
2022-12-19T05:07:00.955Z,97351.27
2022-12-19T05:09:29.002Z,97345.68
2022-12-19T05:11:57.190Z,97352.48
2022-12-19T05:14:25.238Z,97353.96
2022-12-19T05:16:58.921Z,97362.89
2022-12-19T05:19:29.655Z,97359.35
2022-12-19T05:21:57.826Z,97356.96
2022-12-19T05:24:26.108Z,97354.80
2022-12-19T05:26:54.487Z,97356.00
2022-12-19T05:29:22.864Z,97355.17
2022-12-19T05:31:51.051Z,97354.73
2022-12-19T05:34:19.315Z,97351.56
2022-12-19T05:36:47.522Z,97351.95
2022-12-19T05:39:16.006Z,97346.84
2022-12-19T05:41:47.568Z,97341.65
2022-12-19T05:44:17.485Z,97343.56
2022-12-19T05:46:45.792Z,97343.73
2022-12-19T05:49:14.039Z,97350.49
2022-12-19T05:51:42.136Z,97349.36
2022-12-19T05:54:10.217Z,97349.59
2022-12-19T05:56:38.457Z,97349.61
2022-12-19T05:59:06.651Z,97349.88
2022-12-19T06:01:34.798Z,97358.16
2022-12-19T06:04:04.509Z,97353.64
2022-12-19T06:06:32.774Z,97351.54
2022-12-19T06:09:02.041Z,97350.00
2022-12-19T06:11:30.364Z,97349.84
2022-12-19T06:13:58.365Z,97349.46
2022-12-19T06:16:26.556Z,97349.97
2022-12-19T06:18:54.731Z,97348.89
2022-12-19T06:21:23.630Z,97353.67
2022-12-19T06:23:51.693Z,97355.11
2022-12-19T06:26:21.112Z,97351.64
2022-12-19T06:28:51.790Z,97348.48
2022-12-19T06:31:22.068Z,97351.95
2022-12-19T06:33:50.645Z,97351.59
2022-12-19T06:36:29.891Z,97351.23
2022-12-19T06:38:59.063Z,97355.42
2022-12-19T06:41:46.485Z,97360.16
2022-12-19T06:44:17.137Z,97360.50
2022-12-19T06:46:45.287Z,97361.30
2022-12-19T06:49:13.669Z,97360.86
2022-12-19T06:51:42.576Z,97365.52
2022-12-19T06:54:11.991Z,97367.06
2022-12-19T06:56:42.926Z,97365.77
2022-12-19T06:59:16.567Z,97369.55
2022-12-19T07:02:18.658Z,97379.91
2022-12-19T07:04:52.539Z,97380.97
2022-12-19T07:07:20.729Z,97378.41
2022-12-19T07:09:49.163Z,97381.65
2022-12-19T07:12:17.618Z,97379.76
2022-12-19T07:14:50.168Z,97377.38
2022-12-19T07:17:23.626Z,97382.54
2022-12-19T07:19:56.118Z,97378.27
2022-12-19T07:22:31.888Z,97373.97
2022-12-19T07:25:02.580Z,97379.88
2022-12-19T07:27:35.699Z,97383.33
2022-12-19T07:30:06.310Z,97385.48
2022-12-19T07:32:34.463Z,97379.83
2022-12-19T07:35:02.780Z,97381.92
2022-12-19T07:37:30.941Z,97378.27
2022-12-19T07:39:59.197Z,97378.74
2022-12-19T07:42:32.365Z,97378.59
2022-12-19T07:45:01.735Z,97378.90
2022-12-19T07:47:29.856Z,97375.23
2022-12-19T07:49:58.142Z,97378.98
2022-12-19T07:52:27.384Z,97381.20
2022-12-19T07:54:55.664Z,97384.54
2022-12-19T07:57:23.805Z,97386.38
2022-12-19T07:59:52.055Z,97394.00
2022-12-19T08:02:20.633Z,97394.41
2022-12-19T08:04:48.938Z,97401.19
2022-12-19T08:07:17.516Z,97400.52
2022-12-19T08:09:46.334Z,97402.91
2022-12-19T08:12:14.888Z,97405.08
2022-12-19T08:14:42.930Z,97402.48
2022-12-19T08:17:20.241Z,97400.02
2022-12-19T08:19:49.037Z,97398.06
2022-12-19T08:22:17.429Z,97400.38
2022-12-19T08:24:45.831Z,97403.77
2022-12-19T08:27:17.028Z,97405.71
2022-12-19T08:29:45.731Z,97406.11
2022-12-19T08:32:20.441Z,97406.42
2022-12-19T08:34:50.164Z,97402.63
2022-12-19T08:37:18.450Z,97403.45
2022-12-19T08:39:46.686Z,97402.10
2022-12-19T08:42:14.987Z,97401.73
2022-12-19T08:44:43.405Z,97403.96
2022-12-19T08:47:11.679Z,97402.11
2022-12-19T08:49:40.453Z,97403.31
2022-12-19T08:52:08.637Z,97401.83
2022-12-19T08:54:36.984Z,97403.34
2022-12-19T08:57:05.380Z,97404.98
2022-12-19T08:59:33.624Z,97405.66
2022-12-19T09:02:02.844Z,97406.55
2022-12-19T09:05:59.558Z,97406.58
2022-12-19T09:07:22.622Z,97403.02
2022-12-19T09:09:50.919Z,97403.50
2022-12-19T09:12:19.723Z,97402.18
2022-12-19T09:14:47.657Z,97398.05
2022-12-19T09:17:16.159Z,97399.08
2022-12-19T09:19:47.471Z,97394.90
2022-12-19T09:22:17.152Z,97391.45
2022-12-19T09:24:46.017Z,97394.42
2022-12-19T09:27:14.738Z,97394.40
2022-12-19T09:29:44.209Z,97390.45
2022-12-19T09:32:12.756Z,97392.55
2022-12-19T09:34:40.980Z,97390.52
2022-12-19T09:37:15.976Z,97391.56
2022-12-19T09:39:47.462Z,97388.40
2022-12-19T09:42:24.230Z,97384.25
2022-12-19T09:45:08.385Z,97386.46
2022-12-19T09:47:42.693Z,97386.71
2022-12-19T09:50:31.762Z,97386.60
2022-12-19T09:53:21.442Z,97389.89
2022-12-19T09:55:54.088Z,97387.85
2022-12-19T09:58:32.320Z,97380.00
2022-12-19T10:01:05.946Z,97383.75
2022-12-19T10:03:45.339Z,97385.96
2022-12-19T10:07:11.966Z,97382.25
2022-12-19T10:12:33.195Z,97380.79
2022-12-19T10:12:50.772Z,97376.02
2022-12-19T10:15:44.318Z,97381.56
2022-12-19T10:18:18.448Z,97376.94
2022-12-19T10:20:57.485Z,97378.89
2022-12-19T10:23:50.421Z,97378.27
2022-12-19T10:26:21.372Z,97372.45
2022-12-19T10:29:20.680Z,97369.28
2022-12-19T10:31:56.390Z,97362.52
2022-12-19T10:34:32.949Z,97365.83
2022-12-19T10:37:40.982Z,97361.77
2022-12-19T10:40:28.576Z,97359.02
2022-12-19T10:43:15.300Z,97360.34
2022-12-19T10:45:55.427Z,97359.69
2022-12-19T10:48:30.784Z,97358.20
2022-12-19T10:51:05.051Z,97356.02
2022-12-19T10:53:34.865Z,97358.40
2022-12-19T10:56:13.791Z,97361.02
2022-12-19T10:58:44.486Z,97357.38
2022-12-19T11:01:22.061Z,97355.17
2022-12-19T11:04:13.038Z,97351.52
2022-12-19T11:06:49.898Z,97342.98
2022-12-19T11:09:27.877Z,97339.17
2022-12-19T11:16:14.980Z,97334.61
2022-12-19T11:19:43.732Z,97334.84
2022-12-19T11:23:32.169Z,97339.98
2022-12-19T11:29:25.378Z,97340.39
2022-12-19T11:29:39.639Z,97335.42
2022-12-19T11:30:09.327Z,97325.39
2022-12-19T11:32:44.579Z,97318.38
2022-12-19T11:35:36.961Z,97319.27
2022-12-19T11:38:08.599Z,97317.86
2022-12-19T11:40:49.636Z,97314.43
2022-12-19T11:43:47.223Z,97316.53
2022-12-19T11:46:37.376Z,97320.61
2022-12-19T11:49:27.746Z,97324.45
2022-12-19T11:53:03.625Z,97326.46
2022-12-19T11:55:40.188Z,97328.15
2022-12-19T11:58:13.098Z,97326.55
2022-12-19T12:00:50.188Z,97324.79
2022-12-19T12:03:32.123Z,97329.58
2022-12-19T12:06:06.584Z,97333.98
2022-12-19T12:11:03.667Z,97335.94
2022-12-19T12:15:39.610Z,97336.87
2022-12-19T12:28:47.925Z,97339.14
2022-12-19T12:31:26.458Z,97316.73
2022-12-19T12:31:28.530Z,97283.83
2022-12-19T12:31:32.466Z,97301.77
2022-12-19T12:31:57.583Z,97270.35
2022-12-19T12:31:58.473Z,97271.20
2022-12-19T12:35:54.536Z,97270.27
2022-12-19T12:39:33.597Z,97279.78
2022-12-19T12:42:14.953Z,97286.58
2022-12-19T12:44:46.195Z,97287.31
2022-12-19T12:47:25.851Z,97291.81
2022-12-19T12:50:04.665Z,97291.61
2022-12-19T12:52:38.974Z,97280.51
2022-12-19T12:55:43.403Z,97286.03
2022-12-19T12:58:42.614Z,97292.56
2022-12-19T13:01:38.917Z,97295.05
2022-12-19T13:04:07.641Z,97300.32
2022-12-19T13:06:41.820Z,97290.98
2022-12-19T13:09:09.796Z,97286.86
2022-12-19T13:12:05.950Z,97283.23
2022-12-19T13:14:34.025Z,97278.23
2022-12-19T13:17:06.633Z,97280.55
2022-12-19T13:19:39.615Z,97283.31
2022-12-19T13:22:07.948Z,97285.27
2022-12-19T13:24:54.468Z,97279.63
2022-12-19T13:27:23.895Z,97280.39
2022-12-19T13:30:01.465Z,97284.52
2022-12-19T13:32:38.862Z,97283.11
2022-12-19T13:36:32.968Z,97282.42
2022-12-19T13:39:49.082Z,97279.94
2022-12-19T13:41:43.163Z,97279.60
2022-12-19T13:44:12.189Z,97277.04
2022-12-19T13:46:45.810Z,97272.45
2022-12-19T13:49:32.871Z,97272.42
2022-12-19T13:52:05.316Z,97278.58
2022-12-19T13:54:59.523Z,97279.48
2022-12-19T13:57:31.942Z,97276.12
2022-12-19T14:00:04.093Z,97275.32
2022-12-19T14:02:44.733Z,97282.04
2022-12-19T14:05:34.048Z,97282.63
2022-12-19T14:08:23.380Z,97284.67
2022-12-19T14:11:35.899Z,97281.84
2022-12-19T14:14:15.104Z,97279.27
2022-12-19T14:16:47.126Z,97279.39
2022-12-19T14:19:27.868Z,97276.27
2022-12-19T14:22:15.882Z,97275.58
2022-12-19T14:25:43.499Z,97282.77
2022-12-19T14:28:26.431Z,97289.89
2022-12-19T14:30:49.271Z,97285.81
2022-12-19T14:33:44.991Z,97284.55
2022-12-19T14:36:17.442Z,97285.35
2022-12-19T14:39:26.450Z,97284.41
2022-12-19T14:42:02.764Z,97286.98
2022-12-19T14:53:08.460Z,97284.30
2022-12-19T14:54:14.694Z,97292.16
2022-12-19T14:54:34.889Z,97282.73
2022-12-19T14:54:41.911Z,97283.19
2022-12-19T14:59:04.674Z,97286.85
2022-12-19T15:01:36.547Z,97284.60
2022-12-19T15:04:48.046Z,97277.94
2022-12-19T15:07:19.846Z,97279.52
2022-12-19T15:11:04.536Z,97285.86
2022-12-19T15:14:49.065Z,97283.36
2022-12-19T15:16:06.561Z,97286.47
2022-12-19T15:18:42.431Z,97282.41
2022-12-19T15:21:13.232Z,97274.73
2022-12-19T15:23:44.288Z,97272.05
2022-12-19T15:26:18.454Z,97274.29
2022-12-19T15:28:52.335Z,97272.96
2022-12-19T15:31:36.077Z,97275.75
2022-12-19T15:36:58.932Z,97271.67
2022-12-19T15:39:29.908Z,97272.20
2022-12-19T15:42:00.437Z,97266.86
2022-12-19T15:44:35.390Z,97260.96
2022-12-19T15:47:22.398Z,97257.42
2022-12-19T15:49:50.446Z,97260.17
2022-12-19T15:52:20.521Z,97257.60
2022-12-19T15:54:50.295Z,97256.16
2022-12-19T15:57:34.368Z,97248.54
2022-12-19T16:00:07.956Z,97246.56
2022-12-19T16:03:13.239Z,97246.00
2022-12-19T16:05:29.491Z,97242.13
2022-12-19T16:07:59.202Z,97245.63
2022-12-19T16:10:27.656Z,97241.77
2022-12-19T16:12:58.146Z,97246.88
2022-12-19T16:15:31.614Z,97245.87
2022-12-19T16:18:03.121Z,97242.46
2022-12-19T16:20:36.212Z,97245.31
2022-12-19T16:23:04.475Z,97246.36
2022-12-19T16:25:40.505Z,97243.30
2022-12-19T16:28:18.495Z,97242.95
2022-12-19T16:30:47.621Z,97241.17
2022-12-19T16:33:21.951Z,97237.70
2022-12-19T16:36:07.374Z,97237.02
2022-12-19T16:38:36.475Z,97228.35
2022-12-19T16:41:04.801Z,97232.56
2022-12-19T16:43:39.091Z,97232.98
2022-12-19T16:46:08.869Z,97228.85
2022-12-19T16:48:37.967Z,97226.10
2022-12-19T16:51:19.328Z,97226.75
2022-12-19T16:53:49.475Z,97225.06
2022-12-19T16:56:40.818Z,97216.36
2022-12-19T16:59:16.942Z,97210.79
2022-12-19T17:01:45.891Z,97211.38
2022-12-19T17:04:23.233Z,97211.77
2022-12-19T17:06:54.090Z,97214.94
2022-12-19T17:09:24.359Z,97214.14
2022-12-19T17:12:02.384Z,97220.09
2022-12-19T17:14:32.245Z,97212.01
2022-12-19T17:17:00.748Z,97213.88
2022-12-19T17:19:38.859Z,97218.15
2022-12-19T17:22:15.667Z,97221.73
2022-12-19T17:24:48.521Z,97218.80
2022-12-19T17:27:17.586Z,97219.13
2022-12-19T17:29:47.376Z,97224.19
2022-12-19T17:32:23.213Z,97225.22
2022-12-19T17:34:52.417Z,97218.56
2022-12-19T17:37:21.001Z,97217.35
2022-12-19T17:39:49.114Z,97216.84
2022-12-19T17:42:24.451Z,97215.36
2022-12-19T17:44:52.600Z,97217.67
2022-12-19T17:47:21.199Z,97218.46
2022-12-19T17:49:49.795Z,97217.05
2022-12-19T17:52:20.135Z,97218.50
2022-12-19T17:54:48.328Z,97217.21
2022-12-19T17:57:18.130Z,97217.02
2022-12-19T17:59:48.850Z,97218.43
2022-12-19T18:02:23.934Z,97214.64
2022-12-19T18:04:53.483Z,97211.52
2022-12-19T18:07:21.594Z,97211.74
2022-12-19T18:09:49.890Z,97208.40
2022-12-19T18:12:17.927Z,97206.99
2022-12-19T18:14:46.096Z,97201.81
2022-12-19T18:17:21.198Z,97195.23
2022-12-19T18:19:49.274Z,97191.10
2022-12-19T18:22:17.897Z,97192.59
2022-12-19T18:24:45.873Z,97187.27
2022-12-19T18:27:13.958Z,97181.92
2022-12-19T18:29:42.079Z,97179.79
2022-12-19T18:32:20.637Z,97178.86
2022-12-19T18:34:48.740Z,97178.14
2022-12-19T18:37:17.313Z,97176.58
2022-12-19T18:39:45.321Z,97167.78
2022-12-19T18:42:21.654Z,97172.36
2022-12-19T18:44:49.696Z,97174.23
2022-12-19T18:47:22.135Z,97172.14
2022-12-19T18:49:52.231Z,97171.09
2022-12-19T18:52:20.420Z,97169.89
2022-12-19T18:54:48.498Z,97162.45
2022-12-19T18:57:16.787Z,97158.64
2022-12-19T18:59:44.858Z,97157.52
2022-12-19T19:02:27.578Z,97158.48
2022-12-19T19:04:56.276Z,97157.46
2022-12-19T19:07:24.356Z,97163.61
2022-12-19T19:09:52.536Z,97156.20
2022-12-19T19:12:48.703Z,97156.14
2022-12-19T19:15:19.555Z,97152.21
2022-12-19T19:17:50.282Z,97151.33
2022-12-19T19:20:19.243Z,97149.33
2022-12-19T19:22:47.857Z,97151.50
2022-12-19T19:25:16.040Z,97147.14
2022-12-19T19:27:45.140Z,97138.27
2022-12-19T19:30:13.547Z,97143.63
2022-12-19T19:32:48.725Z,97148.21
2022-12-19T19:35:20.121Z,97145.16
2022-12-19T19:37:51.854Z,97139.02
2022-12-19T19:40:19.956Z,97141.60
2022-12-19T19:42:48.061Z,97137.77
2022-12-19T19:45:16.461Z,97128.86
2022-12-19T19:47:45.041Z,97126.80
2022-12-19T19:50:13.206Z,97130.37
2022-12-19T19:52:41.303Z,97133.61
2022-12-19T19:55:10.902Z,97129.04
2022-12-19T19:57:39.587Z,97128.20
2022-12-19T20:00:09.453Z,97127.19
2022-12-19T20:02:43.901Z,97131.98
2022-12-19T20:05:12.608Z,97131.73
2022-12-19T20:07:41.527Z,97134.33
2022-12-19T20:10:10.460Z,97132.82
2022-12-19T20:12:38.807Z,97135.20
2022-12-19T20:15:08.261Z,97135.80
2022-12-19T20:17:36.666Z,97136.23
2022-12-19T20:20:05.625Z,97136.52
2022-12-19T20:22:33.905Z,97137.18
2022-12-19T20:25:01.908Z,97138.91
2022-12-19T20:27:29.902Z,97139.20
2022-12-19T20:29:58.058Z,97141.89
2022-12-19T20:32:26.335Z,97140.36
2022-12-19T20:34:54.415Z,97132.47
2022-12-19T20:37:22.643Z,97132.35
2022-12-19T20:39:50.985Z,97125.44
2022-12-19T20:42:19.604Z,97120.59
2022-12-19T20:44:47.661Z,97118.63
2022-12-19T20:47:15.763Z,97123.48
2022-12-19T20:49:44.742Z,97127.13
2022-12-19T20:52:12.717Z,97126.89
2022-12-19T20:54:41.510Z,97129.33
2022-12-19T20:57:09.448Z,97140.60
2022-12-19T20:59:37.572Z,97131.61
2022-12-19T21:02:05.675Z,97134.39
2022-12-19T21:04:34.508Z,97139.19
2022-12-19T21:07:03.049Z,97145.14
2022-12-19T21:09:31.541Z,97134.40
2022-12-19T21:11:59.715Z,97129.34
2022-12-19T21:14:27.999Z,97129.00
2022-12-19T21:16:55.982Z,97127.77
2022-12-19T21:19:24.272Z,97132.66
2022-12-19T21:21:52.647Z,97126.55
2022-12-19T21:24:20.825Z,97124.83
2022-12-19T21:26:57.653Z,97121.98
2022-12-19T21:29:26.398Z,97124.54
2022-12-19T21:31:54.700Z,97127.02
2022-12-19T21:34:22.858Z,97128.24
2022-12-19T21:36:50.872Z,97128.73
2022-12-19T21:39:20.721Z,97130.75
2022-12-19T21:41:48.738Z,97136.20
2022-12-19T21:44:16.837Z,97134.52
2022-12-19T21:46:44.955Z,97130.73
2022-12-19T21:49:13.046Z,97129.15
2022-12-19T21:51:41.311Z,97124.12
2022-12-19T21:54:09.803Z,97123.52
2022-12-19T21:56:40.283Z,97117.25
2022-12-19T21:59:15.174Z,97113.88
2022-12-19T22:01:44.587Z,97108.51
2022-12-19T22:04:15.972Z,97106.50
2022-12-19T22:06:44.318Z,97103.79
2022-12-19T22:09:15.314Z,97106.44
2022-12-19T22:11:44.407Z,97100.61
2022-12-19T22:14:16.858Z,97097.06
2022-12-19T22:16:45.255Z,97093.07
2022-12-19T22:19:16.570Z,97093.84
2022-12-19T22:21:46.637Z,97095.60
2022-12-19T22:24:16.262Z,97094.07
2022-12-19T22:26:45.271Z,97092.45
2022-12-19T22:29:17.611Z,97090.61
2022-12-19T22:31:46.738Z,97094.53
2022-12-19T22:34:17.989Z,97091.66
2022-12-19T22:36:47.092Z,97084.88
2022-12-19T22:39:18.621Z,97080.61
2022-12-19T22:41:47.141Z,97079.52
2022-12-19T22:44:18.988Z,97078.25
2022-12-19T22:46:47.810Z,97081.67
2022-12-19T22:49:16.543Z,97082.95
2022-12-19T22:51:44.774Z,97081.92
2022-12-19T22:54:13.693Z,97071.13
2022-12-19T22:56:42.400Z,97069.02
2022-12-19T22:59:10.976Z,97070.13
2022-12-19T23:01:40.226Z,97069.33
2022-12-19T23:04:12.010Z,97058.83
2022-12-19T23:06:41.150Z,97059.42
2022-12-19T23:09:12.621Z,97059.84
2022-12-19T23:11:42.778Z,97055.15
2022-12-19T23:14:14.818Z,97049.23
2022-12-19T23:16:44.099Z,97044.51
2022-12-19T23:19:14.631Z,97041.79
2022-12-19T23:21:42.750Z,97040.72
2022-12-19T23:24:11.841Z,97037.04
2022-12-19T23:26:40.117Z,97041.91
2022-12-19T23:29:13.804Z,97030.08
2022-12-19T23:31:45.039Z,97028.67
2022-12-19T23:34:14.417Z,97029.05
2022-12-19T23:39:30.791Z,97028.15
2022-12-19T23:41:59.011Z,97021.09
2022-12-19T23:44:27.503Z,97021.17
2022-12-19T23:47:02.310Z,97021.52
2022-12-19T23:49:32.888Z,97019.80
2022-12-19T23:52:01.213Z,97010.75
2022-12-19T23:54:29.404Z,97012.83
2022-12-19T23:56:57.730Z,97007.60
2022-12-19T23:59:25.955Z,97013.00
